createdAt,value
2019-04-11T00:00:29.526Z,73.70
2019-04-11T00:01:16.661Z,73.70
2019-04-11T00:01:53.158Z,73.70
2019-04-11T00:02:28.975Z,73.80
2019-04-11T00:03:02.984Z,73.90
2019-04-11T00:03:37.581Z,73.90
2019-04-11T00:04:11.117Z,74.20
2019-04-11T00:04:44.618Z,74.30
2019-04-11T00:05:18.909Z,74.50
2019-04-11T00:05:52.895Z,74.50
2019-04-11T00:06:27.593Z,74.20
2019-04-11T00:07:01.394Z,74.20
2019-04-11T00:07:34.956Z,74.50
2019-04-11T00:08:08.373Z,74.80
2019-04-11T00:08:41.975Z,74.90
2019-04-11T00:09:16.783Z,74.90
2019-04-11T00:09:51.131Z,75.10
2019-04-11T00:10:25.037Z,75.50
2019-04-11T00:10:59.552Z,75.50
2019-04-11T00:11:33.595Z,75.50
2019-04-11T00:12:08.385Z,75.50
2019-04-11T00:12:42.926Z,75.50
2019-04-11T00:13:23.480Z,75.30
2019-04-11T00:13:52.112Z,75.80
2019-04-11T00:14:25.531Z,75.90
2019-04-11T00:15:00.118Z,75.90
2019-04-11T00:15:34.825Z,75.80
2019-04-11T00:16:08.850Z,75.70
2019-04-11T00:16:43.471Z,75.60
2019-04-11T00:17:17.511Z,75.60
2019-04-11T00:17:50.909Z,75.50
2019-04-11T00:18:24.945Z,75.40
2019-04-11T00:18:58.914Z,75.60
2019-04-11T00:19:33.551Z,75.80
2019-04-11T00:20:07.722Z,75.80
2019-04-11T00:20:42.310Z,75.80
2019-04-11T00:21:16.994Z,76.00
2019-04-11T00:21:50.925Z,76.10
2019-04-11T00:22:24.356Z,76.30
2019-04-11T00:22:57.776Z,76.50
2019-04-11T00:23:32.304Z,76.70
2019-04-11T00:24:06.991Z,77.00
2019-04-11T00:24:40.944Z,76.90
2019-04-11T00:25:15.364Z,76.90
2019-04-11T00:25:49.569Z,77.00
2019-04-11T00:26:24.322Z,77.00
2019-04-11T00:26:58.145Z,77.00
2019-04-11T00:27:31.559Z,77.20
2019-04-11T00:28:05.775Z,77.20
2019-04-11T00:28:39.538Z,77.20
2019-04-11T00:29:14.272Z,77.40
2019-04-11T00:29:47.933Z,77.40
2019-04-11T00:30:21.392Z,77.20
2019-04-11T00:30:55.123Z,77.30
2019-04-11T00:31:28.600Z,77.20
2019-04-11T00:32:04.878Z,77.80
2019-04-11T00:32:37.963Z,77.80
2019-04-11T00:33:11.600Z,77.70
2019-04-11T00:33:45.006Z,77.50
2019-04-11T00:34:18.555Z,77.40
2019-04-11T00:34:51.952Z,77.40
2019-04-11T00:35:27.850Z,77.20
2019-04-11T00:36:01.496Z,77.30
2019-04-11T00:36:34.978Z,77.30
2019-04-11T00:37:08.670Z,77.30
2019-04-11T00:37:43.360Z,77.40
2019-04-11T00:38:18.022Z,77.50
2019-04-11T00:38:51.623Z,77.40
2019-04-11T00:39:25.785Z,78.10
2019-04-11T00:39:59.717Z,77.50
2019-04-11T00:40:33.326Z,77.50
2019-04-11T00:41:07.970Z,77.50
2019-04-11T00:41:41.848Z,77.70
2019-04-11T00:42:16.546Z,77.80
2019-04-11T00:42:50.537Z,77.70
2019-04-11T00:43:31.634Z,77.70
2019-04-11T00:43:59.281Z,77.80
2019-04-11T00:44:32.811Z,77.80
2019-04-11T00:45:07.456Z,77.60
2019-04-11T00:45:41.159Z,77.70
2019-04-11T00:46:14.580Z,77.70
2019-04-11T00:46:48.855Z,77.80
2019-04-11T00:47:22.791Z,77.80
2019-04-11T00:47:57.458Z,77.80
2019-04-11T00:48:30.962Z,77.80
2019-04-11T00:49:04.396Z,78.20
2019-04-11T00:49:38.760Z,78.40
2019-04-11T00:50:12.759Z,78.40
2019-04-11T00:50:47.521Z,78.40
2019-04-11T00:51:21.237Z,78.40
2019-04-11T00:51:56.132Z,78.60
2019-04-11T00:52:29.668Z,78.70
2019-04-11T00:53:03.587Z,78.90
2019-04-11T00:53:38.246Z,79.20
2019-04-11T00:54:12.279Z,79.00
2019-04-11T00:54:45.691Z,78.90
2019-04-11T00:55:19.620Z,78.80
2019-04-11T00:55:53.623Z,78.80
2019-04-11T00:56:28.250Z,78.90
2019-04-11T00:57:01.888Z,79.10
2019-04-11T00:57:35.377Z,79.10
2019-04-11T00:58:09.649Z,79.30
2019-04-11T00:58:43.572Z,79.40
2019-04-11T00:59:18.256Z,79.50
2019-04-11T00:59:52.027Z,79.50
2019-04-11T01:00:27.029Z,79.70
2019-04-11T01:01:01.661Z,79.90
2019-04-11T01:01:35.704Z,80.00
2019-04-11T01:02:09.668Z,80.00
2019-04-11T01:02:43.333Z,80.00
2019-04-11T01:03:17.898Z,80.00
2019-04-11T01:03:51.711Z,79.90
2019-04-11T01:04:25.553Z,80.10
2019-04-11T01:04:59.539Z,80.30
2019-04-11T01:05:33.890Z,80.40
2019-04-11T01:06:07.510Z,81.20
2019-04-11T01:06:41.262Z,80.20
2019-04-11T01:07:14.688Z,80.20
2019-04-11T01:07:49.186Z,80.20
2019-04-11T01:08:23.860Z,80.30
2019-04-11T01:08:57.353Z,80.40
2019-04-11T01:09:30.912Z,80.50
2019-04-11T01:10:06.643Z,80.80
2019-04-11T01:10:41.436Z,81.20
2019-04-11T01:11:16.034Z,81.20
2019-04-11T01:11:49.669Z,81.30
2019-04-11T01:12:23.112Z,81.40
2019-04-11T01:12:56.796Z,81.70
2019-04-11T01:13:39.707Z,81.60
2019-04-11T01:14:05.666Z,81.80
2019-04-11T01:14:40.562Z,81.80
2019-04-11T01:15:15.895Z,81.70
2019-04-11T01:15:54.449Z,81.70
2019-04-11T01:16:41.625Z,82.00
2019-04-11T01:17:15.066Z,82.30
2019-04-11T01:17:49.631Z,82.10
2019-04-11T01:18:23.132Z,82.30
2019-04-11T01:18:56.554Z,82.60
2019-04-11T01:19:30.893Z,82.70
2019-04-11T01:20:07.310Z,82.70
2019-04-11T01:20:41.814Z,82.80
2019-04-11T01:21:15.803Z,82.80
2019-04-11T01:21:49.408Z,82.70
2019-04-11T01:22:22.826Z,82.70
2019-04-11T01:22:56.469Z,82.70
2019-04-11T01:23:29.870Z,82.70
2019-04-11T01:24:03.799Z,82.60
2019-04-11T01:24:37.425Z,82.70
2019-04-11T01:25:10.842Z,82.90
2019-04-11T01:25:44.422Z,83.20
2019-04-11T01:26:17.779Z,83.20
2019-04-11T01:26:51.757Z,83.20
2019-04-11T01:27:25.715Z,83.50
2019-04-11T01:28:00.458Z,83.70
2019-04-11T01:28:34.457Z,83.80
2019-04-11T01:29:09.177Z,83.70
2019-04-11T01:29:43.904Z,84.50
2019-04-11T01:30:19.097Z,83.70
2019-04-11T01:30:55.454Z,83.70
2019-04-11T01:31:30.622Z,83.90
2019-04-11T01:32:06.502Z,83.90
2019-04-11T01:32:40.344Z,83.90
2019-04-11T01:33:13.701Z,83.90
2019-04-11T01:33:48.305Z,84.00
2019-04-11T01:34:22.099Z,84.00
2019-04-11T01:34:55.520Z,84.20
2019-04-11T01:35:29.240Z,84.30
2019-04-11T01:36:02.843Z,85.40
2019-04-11T01:36:37.318Z,85.40
2019-04-11T01:37:11.393Z,84.50
2019-04-11T01:37:46.054Z,84.60
2019-04-11T01:38:22.144Z,84.60
2019-04-11T01:38:56.908Z,84.60
2019-04-11T01:39:41.235Z,84.30
2019-04-11T01:40:15.789Z,84.40
2019-04-11T01:40:49.802Z,84.20
2019-04-11T01:41:24.577Z,84.00
2019-04-11T01:41:58.661Z,83.90
2019-04-11T01:42:33.355Z,84.00
2019-04-11T01:43:08.039Z,84.00
2019-04-11T01:43:52.563Z,83.80
2019-04-11T01:44:17.139Z,83.70
2019-04-11T01:44:50.567Z,83.70
2019-04-11T01:45:25.591Z,83.70
2019-04-11T01:46:00.002Z,83.90
2019-04-11T01:46:34.013Z,83.90
2019-04-11T01:47:09.227Z,84.00
2019-04-11T01:47:57.364Z,84.00
2019-04-11T01:48:35.422Z,84.10
2019-04-11T01:49:14.224Z,84.20
2019-04-11T01:49:48.233Z,84.20
2019-04-11T01:50:23.335Z,84.30
2019-04-11T01:50:57.092Z,84.30
2019-04-11T01:51:31.685Z,84.20
2019-04-11T01:52:06.438Z,85.00
2019-04-11T01:52:39.983Z,84.30
2019-04-11T01:53:13.531Z,84.60
2019-04-11T01:53:47.197Z,84.60
2019-04-11T01:54:21.675Z,84.60
2019-04-11T01:54:56.425Z,84.80
2019-04-11T01:55:30.155Z,84.80
2019-04-11T01:56:05.055Z,84.80
2019-04-11T01:56:39.153Z,84.80
2019-04-11T01:57:13.873Z,84.90
2019-04-11T01:57:47.728Z,85.00
2019-04-11T01:58:21.147Z,84.90
2019-04-11T01:58:55.214Z,85.00
2019-04-11T01:59:29.151Z,85.10
2019-04-11T02:00:03.847Z,84.90
2019-04-11T02:00:48.759Z,85.10
2019-04-11T02:01:30.588Z,85.40
2019-04-11T02:02:05.738Z,85.40
2019-04-11T02:02:40.885Z,85.50
2019-04-11T02:03:16.937Z,85.60
2019-04-11T02:04:07.753Z,85.70
2019-04-11T02:04:43.881Z,85.90
2019-04-11T02:05:29.247Z,85.80
2019-04-11T02:06:02.941Z,85.80
2019-04-11T02:06:36.366Z,85.70
2019-04-11T02:07:10.137Z,85.80
2019-04-11T02:07:44.806Z,85.60
2019-04-11T02:08:19.513Z,85.50
2019-04-11T02:08:53.141Z,85.60
2019-04-11T02:09:26.560Z,85.80
2019-04-11T02:10:00.184Z,85.90
2019-04-11T02:10:34.875Z,85.70
2019-04-11T02:11:09.706Z,85.80
2019-04-11T02:11:43.541Z,85.90
2019-04-11T02:12:16.956Z,86.00
2019-04-11T02:12:51.115Z,85.90
2019-04-11T02:13:25.740Z,86.00
2019-04-11T02:14:09.775Z,86.10
2019-04-11T02:14:35.434Z,85.90
2019-04-11T02:15:10.165Z,85.90
2019-04-11T02:15:44.209Z,86.00
2019-04-11T02:16:18.893Z,86.10
2019-04-11T02:16:53.692Z,86.20
2019-04-11T02:17:27.464Z,86.40
2019-04-11T02:18:01.369Z,86.50
2019-04-11T02:18:35.207Z,86.60
2019-04-11T02:19:09.914Z,86.80
2019-04-11T02:19:44.747Z,87.70
2019-04-11T02:20:18.766Z,87.10
2019-04-11T02:20:54.209Z,87.20
2019-04-11T02:21:27.608Z,87.20
2019-04-11T02:22:18.539Z,87.20
2019-04-11T02:23:02.738Z,87.20
2019-04-11T02:23:53.760Z,87.10
2019-04-11T02:24:34.859Z,87.10
2019-04-11T02:25:16.422Z,87.10
2019-04-11T02:25:57.615Z,87.40
2019-04-11T02:26:33.575Z,87.50
2019-04-11T02:27:08.632Z,87.70
2019-04-11T02:27:42.304Z,87.80
2019-04-11T02:28:17.446Z,88.00
2019-04-11T02:28:50.928Z,87.80
2019-04-11T02:29:24.301Z,87.80
2019-04-11T02:29:58.591Z,87.80
2019-04-11T02:30:34.039Z,88.00
2019-04-11T02:31:10.285Z,88.00
2019-04-11T02:31:44.518Z,87.80
2019-04-11T02:32:22.693Z,88.00
2019-04-11T02:32:55.953Z,87.90
2019-04-11T02:33:30.618Z,87.80
2019-04-11T02:34:05.925Z,87.90
2019-04-11T02:34:39.847Z,87.80
2019-04-11T02:35:15.272Z,87.90
2019-04-11T02:35:49.538Z,87.80
2019-04-11T02:36:24.820Z,87.70
2019-04-11T02:36:59.813Z,87.80
2019-04-11T02:37:34.304Z,88.00
2019-04-11T02:38:09.542Z,88.10
2019-04-11T02:38:44.078Z,88.10
2019-04-11T02:39:20.350Z,88.00
2019-04-11T02:40:17.782Z,88.00
2019-04-11T02:40:52.556Z,88.10
2019-04-11T02:41:27.486Z,88.00
2019-04-11T02:42:01.430Z,88.20
2019-04-11T02:42:36.159Z,88.40
2019-04-11T02:43:11.160Z,88.70
2019-04-11T02:43:44.787Z,88.90
2019-04-11T02:44:35.007Z,89.10
2019-04-11T02:45:09.154Z,89.10
2019-04-11T02:45:42.825Z,89.30
2019-04-11T02:46:16.909Z,89.20
2019-04-11T02:46:47.543Z,89.30
2019-04-11T02:47:22.387Z,89.30
2019-04-11T02:47:51.714Z,89.20
2019-04-11T02:48:26.924Z,89.30
2019-04-11T02:49:01.520Z,89.10
2019-04-11T02:49:35.942Z,89.10
2019-04-11T02:50:12.394Z,89.30
2019-04-11T02:50:45.841Z,89.40
2019-04-11T02:51:20.583Z,89.50
2019-04-11T02:51:55.702Z,89.60
2019-04-11T02:52:29.290Z,89.70
2019-04-11T02:53:02.997Z,89.70
2019-04-11T02:53:36.854Z,89.90
2019-04-11T02:54:11.512Z,89.90
2019-04-11T02:54:47.218Z,90.00
2019-04-11T02:55:21.077Z,90.00
2019-04-11T02:55:56.596Z,90.10
2019-04-11T02:56:31.237Z,90.10
2019-04-11T02:57:05.738Z,90.20
2019-04-11T02:57:40.839Z,90.20
2019-04-11T02:58:15.227Z,90.20
2019-04-11T02:58:50.116Z,90.20
2019-04-11T02:59:25.373Z,90.20
2019-04-11T02:59:59.869Z,90.30
2019-04-11T03:00:35.459Z,90.30
2019-04-11T03:01:10.644Z,90.30
2019-04-11T03:01:44.026Z,90.30
2019-04-11T03:02:19.500Z,90.40
2019-04-11T03:02:53.371Z,90.30
2019-04-11T03:03:27.382Z,90.30
2019-04-11T03:04:01.886Z,90.30
2019-04-11T03:04:37.079Z,90.30
2019-04-11T03:05:12.022Z,90.30
2019-04-11T03:05:46.814Z,90.30
2019-04-11T03:06:21.527Z,90.30
2019-04-11T03:06:55.397Z,90.30
2019-04-11T03:07:29.995Z,90.30
2019-04-11T03:08:07.792Z,90.30
2019-04-11T03:08:40.746Z,90.30
2019-04-11T03:09:15.351Z,90.40
2019-04-11T03:09:49.173Z,90.40
2019-04-11T03:10:22.638Z,90.40
2019-04-11T03:10:57.601Z,90.40
2019-04-11T03:11:32.534Z,90.40
2019-04-11T03:12:07.398Z,90.50
2019-04-11T03:12:41.261Z,90.50
2019-04-11T03:13:16.767Z,90.50
2019-04-11T03:13:52.705Z,90.50
2019-04-11T03:14:29.271Z,90.50
2019-04-11T03:15:16.348Z,90.40
2019-04-11T03:15:48.646Z,90.50
2019-04-11T03:16:28.087Z,90.50
2019-04-11T03:16:59.059Z,90.60
2019-04-11T03:17:28.647Z,90.60
2019-04-11T03:18:01.774Z,90.60
2019-04-11T03:18:53.434Z,90.60
2019-04-11T03:19:22.552Z,90.50
2019-04-11T03:19:58.326Z,90.50
2019-04-11T03:20:26.485Z,90.60
2019-04-11T03:20:56.960Z,90.70
2019-04-11T03:21:30.844Z,90.50
2019-04-11T03:22:03.311Z,90.50
2019-04-11T03:22:38.360Z,90.50
2019-04-11T03:23:14.582Z,90.40
2019-04-11T03:23:47.030Z,90.60
2019-04-11T03:24:21.859Z,90.70
2019-04-11T03:24:57.827Z,90.70
2019-04-11T03:25:31.191Z,90.80
2019-04-11T03:26:07.350Z,90.90
2019-04-11T03:26:41.363Z,90.80
2019-04-11T03:27:17.838Z,90.80
2019-04-11T03:27:51.725Z,90.70
2019-04-11T03:28:30.478Z,90.80
2019-04-11T03:29:08.723Z,90.80
2019-04-11T03:29:43.140Z,90.80
2019-04-11T03:30:23.476Z,90.90
2019-04-11T03:31:13.341Z,91.00
2019-04-11T03:32:04.681Z,91.00
2019-04-11T03:32:37.120Z,91.00
2019-04-11T03:33:25.297Z,91.00
2019-04-11T03:34:40.213Z,91.00
2019-04-11T03:35:12.347Z,91.00
2019-04-11T03:35:51.957Z,91.00
2019-04-11T03:36:27.474Z,91.00
2019-04-11T03:37:00.191Z,91.00
2019-04-11T03:37:21.134Z,91.10
2019-04-11T03:37:44.647Z,91.10
2019-04-11T03:38:19.379Z,91.00
2019-04-11T03:38:46.580Z,90.90
2019-04-11T03:39:29.137Z,90.90
2019-04-11T03:39:59.561Z,90.80
2019-04-11T03:40:33.550Z,90.80
2019-04-11T03:41:10.762Z,90.80
2019-04-11T03:41:42.803Z,90.70
2019-04-11T03:42:18.696Z,90.70
2019-04-11T03:42:52.394Z,90.70
2019-04-11T03:43:28.046Z,90.70
2019-04-11T03:43:58.062Z,90.80
2019-04-11T03:44:28.631Z,90.80
2019-04-11T03:45:20.909Z,90.90
2019-04-11T03:45:52.518Z,91.00
2019-04-11T03:46:26.662Z,91.10
2019-04-11T03:47:01.197Z,91.10
2019-04-11T03:47:31.795Z,91.20
2019-04-11T03:48:10.518Z,91.20
2019-04-11T03:48:40.540Z,91.30
2019-04-11T03:49:16.480Z,91.20
2019-04-11T03:49:46.767Z,91.20
2019-04-11T03:50:18.902Z,91.20
2019-04-11T03:50:50.446Z,91.20
2019-04-11T03:51:25.771Z,91.10
2019-04-11T03:52:01.089Z,91.10
2019-04-11T03:52:36.542Z,91.10
2019-04-11T03:53:11.405Z,91.10
2019-04-11T03:53:46.826Z,91.20
2019-04-11T03:54:21.070Z,91.20
2019-04-11T03:54:56.260Z,91.30
2019-04-11T03:55:30.743Z,91.20
2019-04-11T03:56:05.194Z,91.20
2019-04-11T03:56:39.016Z,91.20
2019-04-11T03:57:13.371Z,91.20
2019-04-11T03:57:49.170Z,91.20
2019-04-11T03:58:23.941Z,91.30
2019-04-11T03:58:58.416Z,91.30
2019-04-11T03:59:33.761Z,91.30
2019-04-11T04:00:07.232Z,91.30
2019-04-11T04:00:43.806Z,91.30
2019-04-11T04:01:16.385Z,91.30
2019-04-11T04:01:51.078Z,91.30
2019-04-11T04:02:25.247Z,91.30
2019-04-11T04:03:00.033Z,91.30
2019-04-11T04:03:36.188Z,91.30
2019-04-11T04:04:11.136Z,91.30
2019-04-11T04:04:45.662Z,91.30
2019-04-11T04:05:19.195Z,91.40
2019-04-11T04:05:52.897Z,91.40
2019-04-11T04:06:28.573Z,91.40
2019-04-11T04:07:02.523Z,91.40
2019-04-11T04:07:38.030Z,91.40
2019-04-11T04:08:13.035Z,91.30
2019-04-11T04:08:48.545Z,91.30
2019-04-11T04:09:23.787Z,91.20
2019-04-11T04:09:58.437Z,91.20
2019-04-11T04:10:34.230Z,91.30
2019-04-11T04:11:12.332Z,91.30
2019-04-11T04:11:51.262Z,91.30
2019-04-11T04:12:25.022Z,91.20
2019-04-11T04:13:00.216Z,91.10
2019-04-11T04:13:34.605Z,91.50
2019-04-11T04:14:10.454Z,91.10
2019-04-11T04:14:49.496Z,91.20
2019-04-11T04:15:50.493Z,91.30
2019-04-11T04:16:13.428Z,91.30
2019-04-11T04:16:44.434Z,91.30
2019-04-11T04:17:19.267Z,91.40
2019-04-11T04:17:59.505Z,91.40
2019-04-11T04:18:36.092Z,91.40
2019-04-11T04:19:20.458Z,91.40
2019-04-11T04:19:59.625Z,91.50
2019-04-11T04:20:39.309Z,91.50
2019-04-11T04:21:31.252Z,91.50
2019-04-11T04:22:10.933Z,91.50
2019-04-11T04:22:48.095Z,91.40
2019-04-11T04:23:29.502Z,91.50
2019-04-11T04:24:04.065Z,91.50
2019-04-11T04:24:40.460Z,91.40
2019-04-11T04:25:14.300Z,91.40
2019-04-11T04:25:49.245Z,91.40
2019-04-11T04:26:22.938Z,91.40
2019-04-11T04:26:59.115Z,91.40
2019-04-11T04:27:32.709Z,91.50
2019-04-11T04:28:07.881Z,91.50
2019-04-11T04:28:42.952Z,91.50
2019-04-11T04:29:17.937Z,91.60
2019-04-11T04:29:56.863Z,91.70
2019-04-11T04:30:27.678Z,91.80
2019-04-11T04:31:02.125Z,91.80
2019-04-11T04:31:35.835Z,91.70
2019-04-11T04:32:09.478Z,91.70
2019-04-11T04:32:44.900Z,91.80
2019-04-11T04:33:20.285Z,91.70
2019-04-11T04:33:53.570Z,91.70
2019-04-11T04:34:28.462Z,91.80
2019-04-11T04:35:02.763Z,91.90
2019-04-11T04:35:38.767Z,91.90
2019-04-11T04:36:16.019Z,91.90
2019-04-11T04:36:51.513Z,91.90
2019-04-11T04:37:26.699Z,92.00
2019-04-11T04:38:00.824Z,92.00
2019-04-11T04:38:35.528Z,92.00
2019-04-11T04:39:10.666Z,92.00
2019-04-11T04:39:45.681Z,92.00
2019-04-11T04:40:36.001Z,92.10
2019-04-11T04:41:12.852Z,92.10
2019-04-11T04:41:42.735Z,92.10
2019-04-11T04:42:21.251Z,92.20
2019-04-11T04:42:49.899Z,92.20
2019-04-11T04:43:20.408Z,92.20
2019-04-11T04:43:54.955Z,92.20
2019-04-11T04:44:29.694Z,92.30
2019-04-11T04:45:09.079Z,92.40
2019-04-11T04:45:59.737Z,92.40
2019-04-11T04:46:32.938Z,92.40
2019-04-11T04:47:00.170Z,92.30
2019-04-11T04:47:38.558Z,92.30
2019-04-11T04:48:07.267Z,92.30
2019-04-11T04:48:38.125Z,92.20
2019-04-11T04:49:13.214Z,92.20
2019-04-11T04:49:48.162Z,92.20
2019-04-11T04:50:22.419Z,92.20
2019-04-11T04:50:57.234Z,92.30
2019-04-11T04:51:31.880Z,92.40
2019-04-11T04:52:06.118Z,92.50
2019-04-11T04:52:40.840Z,92.60
2019-04-11T04:53:16.163Z,92.60
2019-04-11T04:53:50.142Z,92.80
2019-04-11T04:54:24.111Z,92.60
2019-04-11T04:54:59.350Z,92.70
2019-04-11T04:55:32.849Z,92.70
2019-04-11T04:56:06.815Z,92.70
2019-04-11T04:56:43.166Z,92.70
2019-04-11T04:57:18.214Z,92.70
2019-04-11T04:57:53.311Z,92.70
2019-04-11T04:58:26.885Z,92.70
2019-04-11T04:59:00.382Z,92.70
2019-04-11T04:59:34.068Z,92.70
2019-04-11T05:00:09.256Z,92.70
2019-04-11T05:00:43.678Z,92.60
2019-04-11T05:01:19.086Z,92.70
2019-04-11T05:01:53.283Z,92.70
2019-04-11T05:02:28.355Z,92.80
2019-04-11T05:03:03.092Z,92.80
2019-04-11T05:03:37.777Z,92.80
2019-04-11T05:04:13.512Z,92.90
2019-04-11T05:04:47.836Z,92.90
2019-04-11T05:05:22.061Z,92.90
2019-04-11T05:05:55.639Z,92.80
2019-04-11T05:06:29.055Z,92.90
2019-04-11T05:07:03.282Z,92.90
2019-04-11T05:07:40.239Z,92.90
2019-04-11T05:08:12.114Z,92.90
2019-04-11T05:08:47.050Z,92.80
2019-04-11T05:09:21.332Z,92.80
2019-04-11T05:09:56.503Z,92.70
2019-04-11T05:10:30.718Z,92.70
2019-04-11T05:11:04.746Z,92.70
2019-04-11T05:11:38.452Z,92.80
2019-04-11T05:12:12.050Z,92.80
2019-04-11T05:12:46.043Z,92.80
2019-04-11T05:13:21.516Z,92.70
2019-04-11T05:13:56.644Z,92.70
2019-04-11T05:14:31.668Z,92.70
2019-04-11T05:15:07.918Z,92.70
2019-04-11T05:15:42.146Z,92.70
2019-04-11T05:16:17.859Z,92.70
2019-04-11T05:16:52.577Z,92.80
2019-04-11T05:17:28.213Z,92.80
2019-04-11T05:18:01.947Z,92.80
2019-04-11T05:18:36.427Z,92.80
2019-04-11T05:19:10.040Z,92.70
2019-04-11T05:19:44.558Z,92.70
2019-04-11T05:20:18.332Z,92.70
2019-04-11T05:20:52.658Z,92.70
2019-04-11T05:21:27.605Z,92.60
2019-04-11T05:22:01.856Z,92.60
2019-04-11T05:22:35.671Z,92.60
2019-04-11T05:23:09.093Z,92.60
2019-04-11T05:23:42.697Z,92.60
2019-04-11T05:24:16.642Z,92.60
2019-04-11T05:24:50.192Z,92.90
2019-04-11T05:25:23.714Z,92.60
2019-04-11T05:25:57.419Z,92.50
2019-04-11T05:26:33.575Z,92.40
2019-04-11T05:27:08.246Z,92.40
2019-04-11T05:27:41.962Z,92.40
2019-04-11T05:28:15.405Z,92.50
2019-04-11T05:28:49.114Z,92.50
2019-04-11T05:29:22.535Z,92.50
2019-04-11T05:29:55.963Z,92.50
2019-04-11T05:30:29.474Z,92.40
2019-04-11T05:31:02.896Z,92.50
2019-04-11T05:31:36.579Z,92.50
2019-04-11T05:32:11.267Z,92.50
2019-04-11T05:32:45.168Z,92.60
2019-04-11T05:33:18.819Z,92.60
2019-04-11T05:33:52.247Z,92.60
2019-04-11T05:34:25.904Z,92.60
2019-04-11T05:35:00.574Z,92.60
2019-04-11T05:35:34.483Z,92.60
2019-04-11T05:36:08.241Z,92.50
2019-04-11T05:36:42.865Z,92.50
2019-04-11T05:37:16.435Z,92.60
2019-04-11T05:37:49.874Z,92.60
2019-04-11T05:38:23.300Z,92.60
2019-04-11T05:38:58.165Z,92.50
2019-04-11T05:39:31.755Z,92.60
2019-04-11T05:40:07.260Z,92.60
2019-04-11T05:40:41.856Z,92.60
2019-04-11T05:41:15.626Z,92.50
2019-04-11T05:41:49.976Z,92.50
2019-04-11T05:42:26.988Z,92.50
2019-04-11T05:42:59.627Z,92.40
2019-04-11T05:43:37.386Z,92.40
2019-04-11T05:44:10.877Z,92.40
2019-04-11T05:44:43.304Z,92.50
2019-04-11T05:45:21.008Z,92.40
2019-04-11T05:45:54.765Z,92.40
2019-04-11T05:46:35.241Z,92.40
2019-04-11T05:47:04.151Z,92.40
2019-04-11T05:47:37.543Z,92.30
2019-04-11T05:48:13.400Z,92.30
2019-04-11T05:49:02.156Z,92.30
2019-04-11T05:49:40.849Z,92.20
2019-04-11T05:50:20.327Z,92.20
2019-04-11T05:50:54.088Z,92.10
2019-04-11T05:51:38.833Z,92.00
2019-04-11T05:52:04.357Z,91.80
2019-04-11T05:52:37.915Z,91.70
2019-04-11T05:53:11.701Z,91.70
2019-04-11T05:53:46.077Z,91.60
2019-04-11T05:54:20.434Z,91.60
2019-04-11T05:54:55.467Z,91.60
2019-04-11T05:55:30.555Z,91.50
2019-04-11T05:56:06.856Z,91.40
2019-04-11T05:56:41.635Z,91.70
2019-04-11T05:57:18.738Z,91.20
2019-04-11T05:57:50.469Z,91.10
2019-04-11T05:58:24.130Z,91.00
2019-04-11T05:58:59.891Z,90.90
2019-04-11T05:59:33.327Z,90.80
2019-04-11T06:00:09.678Z,90.70
2019-04-11T06:00:48.904Z,90.80
2019-04-11T06:01:30.844Z,90.80
2019-04-11T06:02:09.304Z,90.50
2019-04-11T06:02:45.558Z,90.40
2019-04-11T06:03:19.593Z,90.40
2019-04-11T06:03:55.484Z,90.30
2019-04-11T06:04:30.598Z,90.10
2019-04-11T06:05:06.857Z,90.10
2019-04-11T06:05:43.177Z,90.00
2019-04-11T06:06:31.902Z,90.00
2019-04-11T06:07:07.856Z,89.50
2019-04-11T06:07:42.907Z,89.50
2019-04-11T06:08:23.424Z,89.10
2019-04-11T06:08:58.366Z,89.10
2019-04-11T06:09:35.051Z,88.90
2019-04-11T06:10:12.974Z,88.90
2019-04-11T06:10:50.644Z,89.00
2019-04-11T06:11:28.626Z,89.10
2019-04-11T06:12:19.813Z,89.00
2019-04-11T06:13:12.133Z,88.80
2019-04-11T06:14:05.681Z,88.80
2019-04-11T06:14:40.342Z,88.80
2019-04-11T06:15:16.400Z,88.80
2019-04-11T06:16:00.682Z,88.70
2019-04-11T06:16:39.811Z,88.80
2019-04-11T06:17:09.185Z,88.70
2019-04-11T06:17:44.476Z,88.60
2019-04-11T06:18:33.055Z,88.60
2019-04-11T06:19:06.028Z,88.60
2019-04-11T06:19:56.303Z,88.60
2019-04-11T06:20:37.615Z,88.60
2019-04-11T06:21:12.692Z,88.60
2019-04-11T06:21:50.615Z,88.60
2019-04-11T06:22:24.072Z,88.50
2019-04-11T06:23:15.925Z,88.30
2019-04-11T06:24:07.760Z,88.10
2019-04-11T06:24:58.629Z,88.10
2019-04-11T06:25:51.276Z,88.00
2019-04-11T06:26:43.000Z,88.10
2019-04-11T06:27:22.080Z,87.80
2019-04-11T06:27:57.924Z,87.60
2019-04-11T06:28:33.920Z,87.60
2019-04-11T06:29:21.285Z,87.50
2019-04-11T06:30:07.411Z,86.90
2019-04-11T06:30:59.133Z,86.80
2019-04-11T06:31:47.425Z,87.00
2019-04-11T06:32:25.630Z,87.20
2019-04-11T06:33:16.508Z,86.30
2019-04-11T06:33:51.660Z,86.30
2019-04-11T06:34:27.075Z,85.80
2019-04-11T06:35:06.103Z,85.80
2019-04-11T06:35:44.147Z,85.70
2019-04-11T06:36:35.601Z,85.40
2019-04-11T06:37:11.742Z,85.30
2019-04-11T06:37:46.945Z,85.50
2019-04-11T06:38:24.910Z,85.10
2019-04-11T06:38:59.960Z,85.10
2019-04-11T06:39:37.939Z,84.80
2019-04-11T06:40:15.903Z,85.00
2019-04-11T06:41:00.324Z,84.80
2019-04-11T06:41:38.870Z,84.70
2019-04-11T06:42:15.013Z,85.00
2019-04-11T06:42:50.240Z,84.90
2019-04-11T06:43:25.751Z,84.70
2019-04-11T06:44:04.689Z,84.40
2019-04-11T06:44:39.900Z,84.30
2019-04-11T06:45:31.519Z,84.10
2019-04-11T06:46:07.105Z,84.10
2019-04-11T06:46:53.989Z,83.60
2019-04-11T06:47:25.065Z,83.40
2019-04-11T06:48:00.989Z,83.30
2019-04-11T06:48:42.592Z,83.40
2019-04-11T06:49:20.405Z,83.00
2019-04-11T06:50:12.885Z,82.60
2019-04-11T06:50:49.376Z,82.40
2019-04-11T06:51:24.475Z,82.50
2019-04-11T06:52:00.222Z,82.20
2019-04-11T06:52:35.340Z,82.40
2019-04-11T06:53:09.415Z,82.40
2019-04-11T06:53:44.470Z,82.10
2019-04-11T06:54:19.548Z,82.10
2019-04-11T06:55:04.486Z,82.10
2019-04-11T06:55:42.773Z,81.90
2019-04-11T06:56:18.848Z,81.80
2019-04-11T06:56:53.813Z,81.20
2019-04-11T06:57:29.994Z,81.80
2019-04-11T06:58:05.119Z,81.60
2019-04-11T06:58:43.684Z,81.30
2019-04-11T06:59:19.060Z,80.90
2019-04-11T06:59:52.760Z,80.80
2019-04-11T07:00:27.312Z,80.60
2019-04-11T07:01:03.523Z,80.40
2019-04-11T07:01:38.353Z,80.20
2019-04-11T07:02:18.026Z,80.10
2019-04-11T07:02:53.003Z,78.90
2019-04-11T07:03:30.397Z,78.70
2019-04-11T07:04:05.017Z,78.70
2019-04-11T07:04:42.683Z,78.60
2019-04-11T07:05:18.291Z,79.20
2019-04-11T07:05:53.140Z,78.20
2019-04-11T07:06:29.417Z,77.70
2019-04-11T07:07:04.593Z,77.60
2019-04-11T07:07:40.824Z,77.70
2019-04-11T07:08:16.157Z,77.60
2019-04-11T07:09:07.576Z,77.60
2019-04-11T07:09:41.933Z,77.00
2019-04-11T07:10:17.961Z,77.30
2019-04-11T07:10:53.331Z,77.10
2019-04-11T07:11:28.420Z,76.80
2019-04-11T07:12:09.761Z,77.10
2019-04-11T07:12:47.319Z,76.40
2019-04-11T07:13:22.706Z,76.20
2019-04-11T07:13:57.923Z,76.60
2019-04-11T07:14:49.362Z,76.10
2019-04-11T07:15:27.234Z,76.20
2019-04-11T07:16:00.792Z,75.30
2019-04-11T07:16:36.232Z,75.30
2019-04-11T07:17:27.641Z,75.00
2019-04-11T07:18:20.479Z,74.80
2019-04-11T07:19:12.085Z,73.60
2019-04-11T07:20:04.535Z,72.90
2019-04-11T07:20:45.860Z,73.20
2019-04-11T07:21:19.374Z,72.20
2019-04-11T07:21:54.374Z,72.10
2019-04-11T07:22:46.639Z,72.40
2019-04-11T07:23:38.414Z,72.10
2019-04-11T07:24:32.325Z,71.80
2019-04-11T07:25:23.479Z,71.50
2019-04-11T07:26:14.989Z,71.60
2019-04-11T07:26:50.097Z,70.80
2019-04-11T07:27:23.838Z,71.00
2019-04-11T07:27:59.398Z,70.80
2019-04-11T07:28:37.162Z,70.00
2019-04-11T07:29:31.505Z,69.90
2019-04-11T07:30:25.184Z,70.10
2019-04-11T07:31:04.510Z,69.90
2019-04-11T07:31:44.064Z,69.40
2019-04-11T07:32:18.092Z,69.30
2019-04-11T07:32:53.312Z,68.80
2019-04-11T07:33:31.402Z,68.70
2019-04-11T07:34:24.848Z,68.00
2019-04-11T07:35:17.259Z,68.20
2019-04-11T07:36:08.423Z,67.60
2019-04-11T07:37:00.235Z,67.70
2019-04-11T07:37:36.455Z,67.40
2019-04-11T07:38:11.862Z,66.90
2019-04-11T07:39:03.433Z,66.20
2019-04-11T07:39:40.877Z,66.20
2019-04-11T07:40:15.573Z,67.20
2019-04-11T07:41:00.697Z,67.30
2019-04-11T07:41:39.404Z,67.00
2019-04-11T07:42:33.459Z,66.20
2019-04-11T07:43:12.839Z,66.80
2019-04-11T07:43:43.312Z,66.60
2019-04-11T07:44:30.113Z,66.60
2019-04-11T07:45:04.365Z,67.00
2019-04-11T07:45:43.264Z,67.00